Time;durP1;ratioP1;P1;durP2;ratioP2;P2;SDS_P1;SDS_P2;PMS_P1;PMS_P2;Temp;Humidity;BMP_temperature;BMP_pressure;BME280_temperature;BME280_humidity;BME280_pressure;Samples;Min_cycle;Max_cycle;Signal;HPM_P1;HPM_P2
2022/09/22 00:00:32;;;;;;;5.50;4.03;;;11.80;99.90;;;;;;4982596;28;20212;-93
2022/09/22 00:02:58;;;;;;;4.10;3.67;;;11.80;99.90;;;;;;4996227;28;20186;-92
2022/09/22 00:05:24;;;;;;;4.93;3.60;;;11.80;99.90;;;;;;4979123;28;20211;-93
2022/09/22 00:07:52;;;;;;;4.13;3.22;;;11.70;99.90;;;;;;4998210;28;20429;-93
2022/09/22 00:10:20;;;;;;;4.88;3.63;;;11.70;99.90;;;;;;4981314;28;20291;-93
2022/09/22 00:12:46;;;;;;;4.43;3.70;;;11.70;99.90;;;;;;5000582;28;20176;-92
2022/09/22 00:15:12;;;;;;;4.03;3.63;;;11.70;99.90;;;;;;4997138;28;20208;-93
2022/09/22 00:17:38;;;;;;;4.53;3.70;;;11.70;99.90;;;;;;4980710;28;20705;-92
2022/09/22 00:20:04;;;;;;;5.20;4.57;;;11.70;99.90;;;;;;4998005;28;20254;-93
2022/09/22 00:22:32;;;;;;;4.75;3.22;;;11.60;99.90;;;;;;4980651;28;20437;-92
2022/09/22 00:24:58;;;;;;;4.60;3.20;;;11.60;99.90;;;;;;5000129;28;20196;-92
2022/09/22 00:27:24;;;;;;;4.43;3.60;;;11.50;99.90;;;;;;4982242;28;20180;-92
2022/09/22 00:29:50;;;;;;;7.28;3.70;;;11.50;99.90;;;;;;4998020;28;20683;-92
2022/09/22 00:32:17;;;;;;;4.20;3.60;;;11.50;99.90;;;;;;5001170;28;20191;-93
2022/09/22 00:34:43;;;;;;;3.40;2.78;;;11.50;99.90;;;;;;4991087;28;20243;-93
2022/09/22 00:37:09;;;;;;;3.70;3.30;;;11.40;99.90;;;;;;5005801;28;20211;-93
2022/09/22 00:39:35;;;;;;;5.18;3.97;;;11.40;99.90;;;;;;4980274;28;20576;-93
2022/09/22 00:42:00;;;;;;;4.33;3.83;;;11.40;99.90;;;;;;4980859;28;20588;-94
2022/09/22 00:44:30;;;;;;;3.90;3.60;;;11.40;99.90;;;;;;4997614;28;20196;-93
2022/09/22 00:47:13;;;;;;;4.80;3.40;;;11.40;99.90;;;;;;4980325;28;20184;-94
2022/09/22 00:49:57;;;;;;;4.80;3.33;;;11.30;99.90;;;;;;4999498;28;20192;-94
2022/09/22 00:52:37;;;;;;;5.50;3.60;;;11.30;99.90;;;;;;4997675;28;20215;-92
2022/09/22 00:55:10;;;;;;;4.45;2.95;;;11.30;99.90;;;;;;4983144;28;20577;-92
2022/09/22 00:57:38;;;;;;;5.05;3.50;;;11.20;99.90;;;;;;4997276;28;20574;-93
2022/09/22 01:00:07;;;;;;;3.67;3.35;;;11.20;99.90;;;;;;4997316;28;20200;-93
2022/09/22 01:02:33;;;;;;;3.75;3.40;;;11.20;99.90;;;;;;4980609;28;20270;-93
2022/09/22 01:04:59;;;;;;;3.88;3.42;;;11.20;99.90;;;;;;4983428;28;20211;-93
2022/09/22 01:07:28;;;;;;;4.67;3.63;;;11.20;99.90;;;;;;4997195;28;20181;-92
2022/09/22 01:09:54;;;;;;;4.05;3.20;;;11.20;99.90;;;;;;4979887;28;20438;-92
2022/09/22 01:12:22;;;;;;;4.45;3.85;;;11.20;99.90;;;;;;4990209;28;20244;-93
2022/09/22 01:15:07;;;;;;;5.03;3.92;;;11.10;99.90;;;;;;4983130;28;20214;-93
2022/09/22 01:17:40;;;;;;;4.18;3.78;;;11.10;99.90;;;;;;4980574;28;20677;-93
2022/09/22 01:20:31;;;;;;;6.72;4.25;;;11.00;99.90;;;;;;4996031;28;20210;-93
2022/09/22 01:23:32;;;;;;;3.50;3.20;;;11.00;99.90;;;;;;4979535;28;20183;-92
2022/09/22 01:26:09;;;;;;;5.25;3.50;;;11.00;99.90;;;;;;5006332;28;20230;-93
2022/09/22 01:28:34;;;;;;;5.65;4.40;;;11.00;99.90;;;;;;4998033;28;20171;-92
2022/09/22 01:31:23;;;;;;;4.67;3.83;;;11.00;99.90;;;;;;5013469;28;20180;-92
2022/09/22 01:34:09;;;;;;;4.45;3.80;;;10.90;99.90;;;;;;4985935;28;20194;-94
2022/09/22 01:36:57;;;;;;;6.38;4.28;;;10.90;99.90;;;;;;4950227;28;20249;-92
2022/09/22 01:39:40;;;;;;;4.05;3.67;;;10.90;99.90;;;;;;4979101;28;20282;-93
2022/09/22 01:42:18;;;;;;;5.20;3.95;;;10.90;99.90;;;;;;4983068;28;20179;-94
2022/09/22 01:44:57;;;;;;;4.65;3.60;;;10.90;99.90;;;;;;4995706;28;20203;-93
2022/09/22 01:47:43;;;;;;;4.85;3.65;;;10.80;99.90;;;;;;4997660;28;20175;-93
2022/09/22 01:50:23;;;;;;;4.18;3.55;;;10.90;99.90;;;;;;5002212;28;20542;-94
2022/09/22 01:52:52;;;;;;;5.10;3.97;;;10.90;99.90;;;;;;4996305;28;20254;-93
2022/09/22 01:55:25;;;;;;;6.28;3.75;;;10.90;99.90;;;;;;4999619;28;20187;-93
2022/09/22 01:57:54;;;;;;;4.70;4.10;;;10.90;99.90;;;;;;4979098;28;20677;-93
2022/09/22 02:00:22;;;;;;;4.47;3.75;;;10.90;99.90;;;;;;4996298;28;20195;-93
2022/09/22 02:03:08;;;;;;;5.63;3.65;;;10.90;99.90;;;;;;4996045;28;20175;-92
2022/09/22 02:05:39;;;;;;;7.22;4.53;;;10.80;99.90;;;;;;4979112;28;20234;-92
2022/09/22 02:08:13;;;;;;;4.25;3.58;;;10.90;99.90;;;;;;4999386;28;20178;-92
2022/09/22 02:10:44;;;;;;;5.97;4.13;;;10.80;99.90;;;;;;4982875;28;20256;-93
2022/09/22 02:13:10;;;;;;;5.63;4.50;;;10.80;99.90;;;;;;4995070;28;20641;-94
2022/09/22 02:18:30;;;;;;;8.27;4.65;;;10.80;99.90;;;;;;4995996;28;20522;-93
2022/09/22 02:20:55;;;;;;;5.55;4.30;;;10.80;99.90;;;;;;4997529;28;20202;-92
2022/09/22 02:23:21;;;;;;;5.50;4.57;;;10.80;99.90;;;;;;4982564;28;20195;-92
2022/09/22 02:25:49;;;;;;;4.50;3.60;;;10.80;99.90;;;;;;4982428;28;20962;-93
2022/09/22 02:28:17;;;;;;;6.72;4.90;;;10.80;99.90;;;;;;4980438;28;20552;-93
2022/09/22 02:30:47;;;;;;;7.28;4.63;;;10.80;99.90;;;;;;4998007;28;20269;-92
2022/09/22 02:33:13;;;;;;;5.00;4.40;;;10.80;99.90;;;;;;4996621;28;20172;-91
2022/09/22 02:35:42;;;;;;;4.53;4.00;;;10.80;99.90;;;;;;4979718;28;20575;-93
2022/09/22 02:38:15;;;;;;;5.25;4.53;;;10.80;99.90;;;;;;4978397;28;20311;-93
2022/09/22 02:40:56;;;;;;;5.22;3.60;;;10.80;99.90;;;;;;4978295;28;20606;-92
2022/09/22 02:43:42;;;;;;;6.22;4.38;;;10.80;99.90;;;;;;4995596;28;20165;-92
2022/09/22 02:46:52;;;;;;;4.05;3.65;;;10.80;99.90;;;;;;4995959;28;20258;-93
2022/09/22 02:49:18;;;;;;;5.93;3.90;;;10.80;99.90;;;;;;4949606;29;20194;-92
2022/09/22 02:51:48;;;;;;;4.70;4.07;;;10.80;99.90;;;;;;4936011;29;20197;-92
2022/09/22 02:54:13;;;;;;;8.15;4.68;;;10.70;99.90;;;;;;4958616;28;20211;-93
2022/09/22 02:56:40;;;;;;;5.73;4.30;;;10.80;99.90;;;;;;4978323;28;20318;-94
2022/09/22 02:59:08;;;;;;;7.78;4.55;;;10.80;99.90;;;;;;4980282;28;20200;-91
2022/09/22 03:01:35;;;;;;;6.55;4.57;;;10.80;99.90;;;;;;4996745;28;20641;-94
2022/09/22 03:04:01;;;;;;;6.28;5.00;;;10.80;99.90;;;;;;4978139;28;20179;-92
2022/09/22 03:06:26;;;;;;;6.88;4.75;;;10.80;99.90;;;;;;4995687;28;20184;-92
2022/09/22 03:08:52;;;;;;;5.33;4.60;;;10.90;99.90;;;;;;4995230;28;20641;-92
2022/09/22 03:11:18;;;;;;;7.47;4.97;;;10.90;99.90;;;;;;4978976;28;20179;-91
2022/09/22 03:13:43;;;;;;;5.37;4.60;;;10.90;99.90;;;;;;4983866;28;20183;-92
2022/09/22 03:16:09;;;;;;;9.73;4.90;;;11.00;99.90;;;;;;4981607;28;20249;-91
2022/09/22 03:18:35;;;;;;;6.67;4.37;;;11.00;99.90;;;;;;5000532;28;20176;-90
2022/09/22 03:21:00;;;;;;;6.10;4.40;;;11.00;99.90;;;;;;5000003;28;20206;-91
2022/09/22 03:23:26;;;;;;;6.30;5.57;;;11.10;99.90;;;;;;4977864;28;20704;-91
2022/09/22 03:25:51;;;;;;;5.70;4.70;;;11.10;99.90;;;;;;4998351;28;20200;-91
2022/09/22 03:28:18;;;;;;;7.20;4.70;;;11.10;99.90;;;;;;4995264;28;20223;-91
2022/09/22 03:30:43;;;;;;;5.38;4.25;;;11.10;99.90;;;;;;4995420;28;20658;-91
2022/09/22 03:33:09;;;;;;;4.67;4.10;;;11.10;99.90;;;;;;4977742;28;20229;-92
2022/09/22 03:35:35;;;;;;;6.07;4.80;;;11.10;99.90;;;;;;4980530;28;20296;-92
2022/09/22 03:38:01;;;;;;;4.90;4.13;;;11.10;99.90;;;;;;4995005;28;20207;-90
2022/09/22 03:40:26;;;;;;;4.60;4.20;;;11.10;99.90;;;;;;4979211;28;20262;-91
2022/09/22 03:42:52;;;;;;;6.10;4.73;;;11.20;99.90;;;;;;4998941;28;20443;-90
2022/09/22 03:45:18;;;;;;;6.60;4.20;;;11.10;99.90;;;;;;4981145;28;20207;-92
2022/09/22 03:47:43;;;;;;;5.57;4.43;;;11.20;99.90;;;;;;4985785;28;20199;-93
2022/09/22 03:50:09;;;;;;;5.40;4.70;;;11.20;99.90;;;;;;4999733;28;20199;-93
2022/09/22 03:52:35;;;;;;;5.60;4.27;;;11.20;99.90;;;;;;5002210;28;20668;-91
2022/09/22 03:55:01;;;;;;;6.03;4.63;;;11.20;99.90;;;;;;4981650;28;20243;-94
2022/09/22 03:57:42;;;;;;;5.60;4.50;;;11.20;99.90;;;;;;4981337;28;20648;-94
2022/09/22 04:00:09;;;;;;;5.55;4.50;;;11.20;99.90;;;;;;4999634;28;20227;-95
2022/09/22 04:02:34;;;;;;;4.53;4.10;;;11.20;99.90;;;;;;4997532;28;20175;-91
2022/09/22 04:05:00;;;;;;;6.10;4.70;;;11.20;99.90;;;;;;5002875;28;20715;-92
2022/09/22 04:07:25;;;;;;;5.50;4.33;;;11.30;99.90;;;;;;4984795;28;20184;-91
2022/09/22 04:09:51;;;;;;;6.13;5.10;;;11.30;99.90;;;;;;5007055;28;20207;-91
2022/09/22 04:12:28;;;;;;;4.73;4.10;;;11.30;99.90;;;;;;4997991;28;20191;-94
2022/09/22 04:14:54;;;;;;;5.47;4.32;;;11.30;99.90;;;;;;4964429;28;20199;-92
2022/09/22 04:17:20;;;;;;;6.83;5.00;;;11.30;99.90;;;;;;4983671;28;20337;-94
2022/09/22 04:19:46;;;;;;;9.80;4.67;;;11.40;99.90;;;;;;4999198;28;20194;-92
2022/09/22 04:22:12;;;;;;;6.13;5.20;;;11.40;99.90;;;;;;4983770;28;20270;-92
2022/09/22 04:24:38;;;;;;;7.25;4.60;;;11.40;99.90;;;;;;4980438;28;20204;-91
2022/09/22 04:27:04;;;;;;;5.90;4.47;;;11.40;99.90;;;;;;4962993;28;20195;-93
2022/09/22 04:29:29;;;;;;;7.10;5.13;;;11.40;99.90;;;;;;4960095;28;20415;-92
2022/09/22 04:31:55;;;;;;;7.80;4.80;;;11.50;99.90;;;;;;4990449;28;20194;-92
2022/09/22 04:34:21;;;;;;;6.20;4.87;;;11.40;99.90;;;;;;4991192;28;20278;-92
2022/09/22 04:36:46;;;;;;;7.97;4.87;;;11.50;99.90;;;;;;4999436;28;20223;-93
2022/09/22 04:39:12;;;;;;;5.73;4.40;;;11.50;99.90;;;;;;4980691;28;20292;-94
2022/09/22 04:41:38;;;;;;;5.33;4.77;;;11.50;99.90;;;;;;4979439;28;20179;-94
2022/09/22 04:44:06;;;;;;;6.70;5.40;;;11.50;99.90;;;;;;4979133;28;20211;-93
2022/09/22 04:46:32;;;;;;;14.18;11.50;;;11.50;99.90;;;;;;4981985;28;20194;-93
2022/09/22 04:48:57;;;;;;;12.17;10.33;;;11.50;99.90;;;;;;4980403;28;20184;-94
2022/09/22 04:51:23;;;;;;;12.13;10.60;;;11.60;99.90;;;;;;4996068;28;20179;-93
2022/09/22 04:53:49;;;;;;;8.90;7.60;;;11.60;99.90;;;;;;4978992;28;20658;-93
2022/09/22 04:56:14;;;;;;;8.30;7.30;;;11.60;99.90;;;;;;4982423;28;20180;-92
2022/09/22 04:58:40;;;;;;;6.70;6.00;;;11.60;99.90;;;;;;5000154;28;20235;-94
2022/09/22 05:01:06;;;;;;;10.67;5.70;;;11.60;99.90;;;;;;5005516;28;20469;-93
2022/09/22 05:03:32;;;;;;;8.80;5.10;;;11.70;99.90;;;;;;4979184;28;20262;-92
2022/09/22 05:05:57;;;;;;;5.77;4.83;;;11.70;99.90;;;;;;4996400;28;20188;-94
2022/09/22 05:08:23;;;;;;;8.13;6.13;;;11.60;99.90;;;;;;4978438;28;20418;-92
2022/09/22 05:10:49;;;;;;;7.30;6.60;;;11.60;99.90;;;;;;4978369;28;20210;-92
2022/09/22 05:13:14;;;;;;;7.33;6.37;;;11.60;99.90;;;;;;4975512;28;20529;-93
2022/09/22 05:15:40;;;;;;;7.70;6.00;;;11.60;99.90;;;;;;4978598;28;20286;-94
2022/09/22 05:18:07;;;;;;;7.40;5.60;;;11.60;99.90;;;;;;4963075;28;20563;-93
2022/09/22 05:20:32;;;;;;;14.90;8.85;;;11.60;99.90;;;;;;4960953;28;20840;-93
2022/09/22 05:22:58;;;;;;;9.07;7.27;;;11.60;99.90;;;;;;4979314;28;20188;-92
2022/09/22 05:25:24;;;;;;;8.00;5.87;;;11.60;99.90;;;;;;4978236;28;20468;-92
2022/09/22 05:27:54;;;;;;;9.03;5.50;;;11.70;99.90;;;;;;4996184;28;20425;-94
2022/09/22 05:30:22;;;;;;;6.72;6.00;;;11.60;99.90;;;;;;4995015;28;20658;-93
2022/09/22 05:32:49;;;;;;;5.90;5.30;;;11.60;99.90;;;;;;4995369;28;20223;-93
2022/09/22 05:35:18;;;;;;;8.75;6.50;;;11.70;99.90;;;;;;4977274;28;20196;-93
2022/09/22 05:37:46;;;;;;;6.32;5.63;;;11.60;99.90;;;;;;4999156;28;20681;-93
2022/09/22 05:40:13;;;;;;;7.60;6.03;;;11.70;99.90;;;;;;4936654;28;1239828;-93
2022/09/22 05:42:47;;;;;;;6.53;5.20;;;11.70;99.90;;;;;;4958211;28;20185;-95
2022/09/22 05:45:14;;;;;;;9.15;7.20;;;11.70;99.90;;;;;;4960321;28;20259;-92
2022/09/22 05:47:40;;;;;;;8.98;7.15;;;11.70;99.90;;;;;;4959511;28;20181;-91
2022/09/22 05:50:08;;;;;;;7.63;6.93;;;11.70;99.90;;;;;;4972844;28;20254;-95
2022/09/22 05:52:33;;;;;;;6.72;5.85;;;11.80;99.90;;;;;;4981566;28;20437;-91
2022/09/22 05:54:59;;;;;;;7.50;5.30;;;11.80;99.90;;;;;;4980497;28;20196;-93
2022/09/22 05:57:26;;;;;;;6.30;5.40;;;11.90;99.90;;;;;;4977521;28;20226;-96
2022/09/22 05:59:52;;;;;;;12.40;6.25;;;11.90;99.90;;;;;;4994933;28;20200;-91
2022/09/22 06:02:18;;;;;;;8.68;5.40;;;11.90;99.90;;;;;;4979361;28;20211;-95
2022/09/22 06:04:44;;;;;;;8.17;5.70;;;11.90;99.90;;;;;;4995742;28;20230;-95
2022/09/22 06:07:10;;;;;;;6.97;5.37;;;11.90;99.90;;;;;;4978738;28;20183;-95
2022/09/22 06:09:35;;;;;;;6.50;5.13;;;12.00;99.90;;;;;;4999412;28;20290;-94
2022/09/22 06:12:02;;;;;;;5.97;4.33;;;12.00;99.90;;;;;;4996274;28;20183;-93
2022/09/22 06:14:27;;;;;;;9.18;6.22;;;12.00;99.90;;;;;;4986217;28;20437;-93
2022/09/22 06:16:54;;;;;;;9.20;6.20;;;12.10;99.90;;;;;;4982512;28;20515;-94
2022/09/22 06:19:22;;;;;;;8.13;7.33;;;12.10;99.90;;;;;;4993417;28;20392;-93
2022/09/22 06:21:48;;;;;;;13.13;9.27;;;12.10;99.90;;;;;;4973051;28;21089;-94
2022/09/22 06:24:15;;;;;;;8.30;7.07;;;12.00;99.90;;;;;;4990689;28;20630;-95
2022/09/22 06:26:41;;;;;;;11.60;6.70;;;12.10;99.90;;;;;;4973650;28;20969;-94
2022/09/22 06:29:07;;;;;;;7.27;5.80;;;12.00;99.90;;;;;;4974369;28;21109;-93
2022/09/22 06:31:33;;;;;;;7.50;4.80;;;12.00;99.90;;;;;;4973838;28;20425;-95
2022/09/22 06:33:58;;;;;;;6.30;5.70;;;12.00;99.90;;;;;;4972992;28;20961;-94
2022/09/22 06:36:30;;;;;;;7.50;5.40;;;11.90;99.90;;;;;;4977633;28;20531;-93
2022/09/22 06:38:57;;;;;;;6.20;5.17;;;11.90;99.90;;;;;;4993211;28;20224;-95
2022/09/22 06:41:24;;;;;;;7.00;5.60;;;11.90;99.90;;;;;;5003653;28;20580;-93
2022/09/22 06:43:51;;;;;;;10.50;5.47;;;11.90;99.90;;;;;;4991448;28;20436;-95
2022/09/22 06:46:17;;;;;;;8.27;6.33;;;11.90;99.90;;;;;;5008812;28;20497;-95
2022/09/22 06:48:44;;;;;;;7.67;6.67;;;11.90;99.90;;;;;;5004943;28;20441;-95
2022/09/22 06:51:09;;;;;;;8.53;5.70;;;12.00;99.90;;;;;;4967909;28;20441;-94
2022/09/22 06:53:35;;;;;;;8.37;6.70;;;12.10;99.90;;;;;;4986176;28;20421;-94
2022/09/22 06:56:04;;;;;;;7.77;6.10;;;12.20;99.90;;;;;;4980728;28;20615;-94
2022/09/22 06:58:31;;;;;;;9.10;6.80;;;12.20;99.90;;;;;;4986695;28;20231;-95
2022/09/22 07:01:05;;;;;;;8.90;6.70;;;12.30;99.90;;;;;;5001152;28;20433;-94
2022/09/22 07:03:39;;;;;;;7.27;6.27;;;12.40;99.90;;;;;;4989538;28;20863;-93
2022/09/22 07:06:05;;;;;;;6.73;6.10;;;12.50;99.90;;;;;;4990361;28;20436;-93
2022/09/22 07:08:33;;;;;;;8.23;7.20;;;12.60;99.90;;;;;;4988548;28;20447;-93
2022/09/22 07:11:09;;;;;;;7.50;5.77;;;12.70;99.90;;;;;;4998185;28;20465;-95
2022/09/22 07:13:42;;;;;;;9.50;6.67;;;12.70;99.90;;;;;;5001581;28;20424;-92
2022/09/22 07:16:18;;;;;;;7.37;6.30;;;12.80;99.90;;;;;;4977540;28;20412;-95
2022/09/22 07:18:47;;;;;;;9.27;6.27;;;12.80;99.90;;;;;;4977685;28;20472;-93
2022/09/22 07:21:15;;;;;;;10.37;8.30;;;12.90;99.90;;;;;;4972591;28;20434;-93
2022/09/22 07:23:43;;;;;;;7.90;6.47;;;12.90;99.90;;;;;;4965127;28;20436;-93
2022/09/22 07:26:14;;;;;;;8.13;6.70;;;12.90;99.90;;;;;;4976887;28;20477;-93
2022/09/22 07:28:41;;;;;;;10.20;7.83;;;13.00;99.90;;;;;;4959645;28;20438;-94
2022/09/22 07:31:14;;;;;;;9.00;6.77;;;13.00;99.90;;;;;;4995925;28;20445;-93
2022/09/22 07:33:42;;;;;;;8.70;7.10;;;13.00;99.90;;;;;;4986885;28;21009;-93
2022/09/22 07:36:14;;;;;;;10.20;7.30;;;13.10;99.90;;;;;;4986991;28;20480;-93
2022/09/22 07:38:42;;;;;;;9.07;7.07;;;13.10;99.90;;;;;;5005658;28;20441;-94
2022/09/22 07:41:10;;;;;;;8.60;6.90;;;13.10;99.90;;;;;;4990290;28;20431;-94
2022/09/22 07:43:37;;;;;;;9.63;6.70;;;13.20;99.90;;;;;;4986021;28;20448;-94
2022/09/22 07:46:02;;;;;;;8.00;7.20;;;13.20;99.90;;;;;;4980348;28;20532;-94
2022/09/22 07:48:35;;;;;;;9.00;7.70;;;13.20;99.90;;;;;;4997803;28;20468;-94
2022/09/22 07:51:01;;;;;;;11.70;7.80;;;13.30;99.90;;;;;;5013299;28;20218;-94
2022/09/22 07:53:27;;;;;;;8.00;6.73;;;13.40;99.90;;;;;;4982861;28;20433;-94
2022/09/22 07:55:52;;;;;;;10.00;7.53;;;13.40;99.90;;;;;;4980989;28;20452;-95
2022/09/22 07:58:20;;;;;;;8.37;7.13;;;13.50;99.90;;;;;;4977404;28;20843;-93
2022/09/22 08:00:45;;;;;;;8.40;6.90;;;13.60;99.90;;;;;;4976000;28;20227;-93
2022/09/22 08:03:11;;;;;;;12.13;7.40;;;13.70;99.90;;;;;;4979957;28;20449;-95
2022/09/22 08:05:38;;;;;;;7.70;6.90;;;13.80;99.90;;;;;;4975852;28;20199;-94
2022/09/22 08:08:04;;;;;;;7.00;6.30;;;13.80;99.90;;;;;;4994312;28;20234;-94
2022/09/22 08:10:32;;;;;;;9.47;6.30;;;13.90;99.90;;;;;;4978886;28;20449;-93
2022/09/22 08:13:01;;;;;;;9.37;6.63;;;14.00;99.90;;;;;;4978956;28;20537;-93
2022/09/22 08:15:27;;;;;;;8.77;7.60;;;14.10;99.90;;;;;;4981544;28;20452;-94
2022/09/22 08:17:57;;;;;;;8.93;6.50;;;14.10;99.90;;;;;;4996290;28;20548;-95
2022/09/22 08:20:27;;;;;;;7.77;6.27;;;14.20;99.90;;;;;;4984767;28;20707;-93
2022/09/22 08:22:56;;;;;;;9.60;7.10;;;14.30;99.90;;;;;;4991810;28;20433;-95
2022/09/22 08:25:24;;;;;;;8.83;7.23;;;14.30;99.90;;;;;;4980243;28;20429;-95
2022/09/22 08:27:50;;;;;;;8.07;6.00;;;14.40;99.90;;;;;;4981063;28;20433;-94
2022/09/22 08:30:17;;;;;;;8.33;6.93;;;14.50;99.90;;;;;;4979968;28;20512;-94
2022/09/22 08:32:44;;;;;;;8.53;6.93;;;14.50;99.90;;;;;;4978166;28;20434;-93
2022/09/22 08:35:10;;;;;;;8.87;7.10;;;14.50;99.90;;;;;;4988983;28;20430;-94
2022/09/22 08:37:36;;;;;;;8.80;6.40;;;14.60;99.90;;;;;;4999281;28;20488;-95
2022/09/22 08:40:03;;;;;;;8.57;7.03;;;14.70;99.90;;;;;;4965322;28;20488;-94
2022/09/22 08:42:32;;;;;;;17.30;6.60;;;14.80;99.90;;;;;;4978109;28;20448;-93
2022/09/22 08:45:34;;;;;;;7.43;6.17;;;14.80;99.90;;;;;;4991150;28;20469;-93
2022/09/22 08:54:05;;;;;;;6.13;5.27;;;15.10;99.90;;;;;;4993666;28;20488;-96
2022/09/22 08:56:39;;;;;;;8.30;5.93;;;15.20;99.90;;;;;;4997676;28;20414;-94
2022/09/22 08:59:21;;;;;;;7.63;6.17;;;15.30;99.90;;;;;;4993987;28;20476;-94
2022/09/22 09:02:01;;;;;;;5.77;4.63;;;15.40;99.90;;;;;;4985130;28;20439;-93
2022/09/22 09:04:53;;;;;;;5.73;5.13;;;15.60;99.90;;;;;;5000358;28;20453;-94
2022/09/22 09:07:19;;;;;;;4.80;4.17;;;15.70;99.90;;;;;;4983790;28;20958;-94
2022/09/22 09:10:09;;;;;;;6.30;4.37;;;15.70;99.90;;;;;;4983009;28;20507;-95
2022/09/22 09:12:52;;;;;;;4.43;3.73;;;15.80;99.90;;;;;;5001317;28;20200;-94
2022/09/22 09:15:41;;;;;;;4.67;4.17;;;15.80;99.90;;;;;;4984687;28;20541;-93
2022/09/22 09:18:15;;;;;;;8.33;5.13;;;15.90;99.90;;;;;;4967943;28;20484;-96
2022/09/22 09:20:46;;;;;;;3.70;3.00;;;16.00;99.90;;;;;;4964928;28;20453;-94
2022/09/22 09:23:16;;;;;;;4.40;3.87;;;16.00;99.90;;;;;;4970789;28;20438;-94
2022/09/22 09:25:44;;;;;;;3.87;3.43;;;16.10;99.90;;;;;;4990208;28;20509;-95
2022/09/22 09:28:21;;;;;;;3.33;2.70;;;16.20;99.90;;;;;;4997276;28;20444;-94
2022/09/22 09:30:55;;;;;;;3.17;2.87;;;16.30;99.90;;;;;;4992876;28;20980;-94
2022/09/22 09:33:50;;;;;;;4.60;3.10;;;16.40;99.90;;;;;;4991800;28;20460;-95
2022/09/22 09:36:21;;;;;;;4.17;3.63;;;16.50;99.90;;;;;;4976006;28;20516;-94
2022/09/22 09:38:52;;;;;;;3.90;3.50;;;16.60;99.90;;;;;;4980635;28;20822;-93
2022/09/22 09:41:23;;;;;;;2.40;2.20;;;16.60;99.90;;;;;;4980429;28;20433;-94
2022/09/22 09:43:53;;;;;;;2.50;2.30;;;16.80;99.90;;;;;;4976711;28;20426;-95
2022/09/22 09:46:46;;;;;;;3.23;2.50;;;16.90;99.90;;;;;;4977230;28;20406;-94
2022/09/22 09:49:18;;;;;;;2.57;2.33;;;17.00;99.90;;;;;;4976531;28;20453;-93
2022/09/22 09:51:53;;;;;;;3.00;2.60;;;17.20;99.90;;;;;;4983248;28;20425;-94
2022/09/22 09:54:19;;;;;;;2.13;2.00;;;17.30;99.90;;;;;;4976691;28;20441;-95
2022/09/22 09:57:05;;;;;;;2.57;2.37;;;17.40;99.90;;;;;;4993442;28;20484;-95
2022/09/22 10:02:24;;;;;;;2.20;2.00;;;17.40;99.90;;;;;;4993059;28;20484;-93
2022/09/22 10:04:53;;;;;;;2.50;2.00;;;17.50;99.90;;;;;;4996508;28;20890;-95
2022/09/22 10:07:26;;;;;;;2.60;2.07;;;17.50;99.90;;;;;;4982380;28;20759;-93
2022/09/22 10:09:53;;;;;;;2.37;2.00;;;17.60;99.90;;;;;;4986438;28;20812;-95
2022/09/22 10:12:26;;;;;;;2.57;2.37;;;17.60;99.90;;;;;;4964105;28;20445;-94
2022/09/22 10:14:57;;;;;;;2.33;2.03;;;17.60;99.90;;;;;;4977956;28;20453;-93
2022/09/22 10:17:28;;;;;;;2.47;1.80;;;17.50;99.90;;;;;;4992408;28;21017;-93
2022/09/22 10:20:32;;;;;;;1.90;1.70;;;17.50;99.90;;;;;;4964843;28;20434;-93
2022/09/22 10:23:19;;;;;;;2.70;2.30;;;17.50;99.90;;;;;;4972107;28;20479;-95
2022/09/22 10:25:45;;;;;;;2.57;2.37;;;17.50;99.90;;;;;;5003363;28;20453;-92
2022/09/22 10:28:17;;;;;;;2.90;2.60;;;17.50;99.90;;;;;;5001323;28;20445;-94
2022/09/22 10:30:44;;;;;;;3.17;2.67;;;17.50;99.90;;;;;;4982743;28;20445;-93
2022/09/22 10:33:20;;;;;;;2.73;2.47;;;17.60;99.90;;;;;;4979287;28;20433;-95
2022/09/22 10:36:07;;;;;;;4.60;2.93;;;17.60;99.90;;;;;;4980643;28;20453;-95
2022/09/22 10:38:37;;;;;;;2.77;2.57;;;17.60;99.90;;;;;;4999490;28;20559;-95
2022/09/22 10:41:06;;;;;;;3.60;3.10;;;17.70;99.90;;;;;;5003154;28;21197;-93
2022/09/22 10:43:36;;;;;;;6.60;3.30;;;17.70;99.90;;;;;;4985148;28;20441;-95
2022/09/22 10:46:37;;;;;;;3.30;3.00;;;17.70;99.90;;;;;;4983429;28;20435;-95
2022/09/22 10:49:04;;;;;;;3.30;3.00;;;17.70;99.90;;;;;;4988133;28;20480;-92
2022/09/22 10:52:02;;;;;;;3.70;3.40;;;17.80;99.90;;;;;;4981528;28;20445;-95
2022/09/22 10:54:41;;;;;;;3.57;3.00;;;17.80;99.90;;;;;;4977642;28;20448;-94
2022/09/22 10:57:36;;;;;;;4.97;3.60;;;17.90;99.90;;;;;;4989844;28;20804;-94
2022/09/22 11:00:17;;;;;;;4.80;3.53;;;18.00;99.90;;;;;;4980928;28;21426;-94
2022/09/22 11:03:10;;;;;;;4.20;3.80;;;18.00;99.90;;;;;;4980822;28;21081;-94
2022/09/22 11:12:16;;;;;;;4.97;4.27;;;18.20;99.90;;;;;;4988792;28;20429;-93
2022/09/22 11:14:51;;;;;;;5.23;4.73;;;18.20;99.90;;;;;;4986037;28;20966;-95
2022/09/22 11:17:30;;;;;;;4.70;4.23;;;18.20;99.90;;;;;;4975591;28;20464;-93
2022/09/22 11:20:26;;;;;;;3.23;2.87;;;18.20;99.90;;;;;;4977090;28;20461;-94
2022/09/22 11:23:05;;;;;;;5.57;2.40;;;18.20;99.90;;;;;;4970570;28;20438;-93
2022/09/22 11:25:41;;;;;;;2.90;1.90;;;18.10;99.90;;;;;;4984781;28;20499;-95
2022/09/22 11:28:19;;;;;;;2.20;2.00;;;18.00;99.90;;;;;;4980843;28;20457;-94
2022/09/22 11:30:49;;;;;;;2.17;1.97;;;17.90;99.90;;;;;;4975933;28;20915;-94
2022/09/22 11:33:21;;;;;;;1.63;1.53;;;17.80;99.90;;;;;;4976035;28;20799;-92
2022/09/22 11:36:08;;;;;;;1.57;1.47;;;17.70;99.90;;;;;;4976630;28;21102;-94
2022/09/22 11:38:57;;;;;;;2.70;2.20;;;17.60;99.90;;;;;;4974803;28;20489;-94
2022/09/22 11:41:44;;;;;;;2.03;1.87;;;17.60;99.90;;;;;;4970653;28;20433;-92
2022/09/22 11:44:25;;;;;;;3.10;1.80;;;17.50;99.90;;;;;;4970345;28;21245;-94
2022/09/22 11:46:56;;;;;;;1.80;1.70;;;17.40;99.90;;;;;;4991238;28;20488;-92
2022/09/22 11:49:40;;;;;;;2.07;1.33;;;17.40;99.90;;;;;;4974110;28;20445;-93
2022/09/22 11:52:23;;;;;;;1.10;1.00;;;17.40;99.90;;;;;;4988141;28;20599;-92
2022/09/22 11:55:05;;;;;;;1.80;1.67;;;17.30;99.90;;;;;;4990993;28;20441;-94
2022/09/22 11:57:35;;;;;;;1.97;1.70;;;17.30;99.90;;;;;;4991445;28;20487;-95
2022/09/22 12:00:16;;;;;;;1.53;1.43;;;17.30;99.90;;;;;;4978732;28;20457;-94
2022/09/22 12:03:15;;;;;;;1.63;1.53;;;17.30;99.90;;;;;;4993553;28;20449;-93
2022/09/22 12:05:55;;;;;;;1.80;1.70;;;17.30;99.90;;;;;;4926479;28;20453;-92
2022/09/22 12:08:28;;;;;;;1.77;1.50;;;17.30;99.90;;;;;;4998278;28;20449;-94
2022/09/22 12:10:55;;;;;;;1.90;1.70;;;17.40;99.90;;;;;;4984292;28;20700;-93
2022/09/22 12:13:29;;;;;;;1.90;1.80;;;17.40;99.90;;;;;;4976126;28;20786;-95
2022/09/22 12:16:17;;;;;;;1.90;1.60;;;17.50;99.90;;;;;;4987926;28;20454;-92
2022/09/22 12:18:54;;;;;;;3.00;1.57;;;17.60;99.90;;;;;;4982207;28;20524;-93
2022/09/22 12:22:04;;;;;;;1.93;1.50;;;17.60;99.90;;;;;;4974562;28;20457;-92
2022/09/22 12:24:31;;;;;;;2.37;2.17;;;17.70;99.90;;;;;;4975317;28;20528;-94
2022/09/22 12:26:57;;;;;;;1.83;1.43;;;17.80;99.90;;;;;;5002278;28;20438;-95
2022/09/22 12:29:30;;;;;;;2.17;1.70;;;17.80;99.90;;;;;;4990806;28;20960;-92
2022/09/22 12:31:58;;;;;;;1.60;1.50;;;17.80;99.90;;;;;;4983317;28;20276;-92
2022/09/22 12:34:38;;;;;;;1.50;1.20;;;17.90;99.90;;;;;;4967443;28;20501;-92
2022/09/22 12:37:28;;;;;;;1.90;1.17;;;17.90;99.90;;;;;;4970867;28;20485;-91
2022/09/22 12:39:55;;;;;;;1.20;1.10;;;17.90;99.90;;;;;;4965983;28;20536;-94
2022/09/22 12:42:34;;;;;;;1.47;1.30;;;17.90;99.90;;;;;;4975861;28;20438;-93
2022/09/22 12:45:35;;;;;;;1.30;1.20;;;17.90;99.90;;;;;;4977741;28;20486;-92
2022/09/22 12:48:15;;;;;;;2.93;1.40;;;17.90;99.90;;;;;;4985047;28;20440;-93
2022/09/22 12:50:42;;;;;;;1.57;1.33;;;17.90;99.90;;;;;;4988507;28;20454;-93
2022/09/22 12:53:25;;;;;;;1.60;1.50;;;18.00;99.90;;;;;;4996701;28;20862;-92
2022/09/22 12:55:53;;;;;;;1.37;1.23;;;18.00;99.90;;;;;;4977130;28;20450;-94
2022/09/22 12:58:22;;;;;;;1.70;1.60;;;18.00;99.90;;;;;;4992454;28;20483;-95
2022/09/22 13:00:55;;;;;;;2.50;1.60;;;18.00;99.90;;;;;;4980303;28;20496;-95
2022/09/22 13:03:24;;;;;;;1.77;1.63;;;18.00;99.90;;;;;;4974327;28;20443;-93
2022/09/22 13:06:02;;;;;;;1.33;1.23;;;18.10;99.90;;;;;;4991385;28;20450;-94
2022/09/22 13:08:31;;;;;;;2.10;1.40;;;18.10;99.90;;;;;;4976996;28;20513;-92
2022/09/22 13:11:06;;;;;;;3.13;1.60;;;18.10;99.90;;;;;;4978168;28;20541;-93
2022/09/22 13:13:38;;;;;;;1.60;1.30;;;18.10;99.90;;;;;;4991581;28;20438;-94
2022/09/22 13:16:04;;;;;;;1.90;1.27;;;18.10;99.90;;;;;;4992869;28;20439;-94
2022/09/22 13:18:37;;;;;;;1.30;1.20;;;18.10;99.90;;;;;;4971455;28;20477;-92
2022/09/22 13:21:21;;;;;;;1.47;1.37;;;18.10;99.90;;;;;;4977626;28;20453;-93
2022/09/22 13:23:54;;;;;;;1.33;1.23;;;18.10;99.90;;;;;;4983157;28;20488;-96
2022/09/22 13:26:22;;;;;;;1.93;1.57;;;18.10;99.90;;;;;;4987876;28;20426;-91